createdAt,value
2023-05-15T00:00:14.148Z,26.80
2023-05-15T00:01:14.169Z,26.82
2023-05-15T00:02:14.195Z,26.80
2023-05-15T00:03:14.235Z,26.82
2023-05-15T00:04:14.190Z,26.82
2023-05-15T00:05:14.400Z,26.82
2023-05-15T00:06:14.150Z,26.82
2023-05-15T00:07:14.169Z,26.80
2023-05-15T00:08:14.134Z,26.83
2023-05-15T00:09:14.142Z,26.82
2023-05-15T00:10:14.145Z,26.82
2023-05-15T00:11:14.137Z,26.80
2023-05-15T00:12:14.126Z,26.83
2023-05-15T00:13:14.097Z,26.83
2023-05-15T00:14:14.101Z,26.83
2023-05-15T00:15:14.125Z,26.83
2023-05-15T00:16:14.164Z,26.85
2023-05-15T00:17:14.095Z,26.80
2023-05-15T00:18:14.151Z,26.83
2023-05-15T00:19:14.180Z,26.83
2023-05-15T00:20:14.074Z,26.83
2023-05-15T00:21:14.059Z,26.82
2023-05-15T00:22:14.070Z,26.85
2023-05-15T00:23:14.079Z,26.82
2023-05-15T00:24:14.079Z,26.82
2023-05-15T00:25:14.080Z,26.83
2023-05-15T00:26:14.066Z,26.82
2023-05-15T00:27:14.076Z,26.83
2023-05-15T00:28:14.080Z,26.82
2023-05-15T00:29:14.056Z,26.82
2023-05-15T00:30:14.076Z,26.80
2023-05-15T00:31:14.078Z,26.85
2023-05-15T00:32:14.082Z,26.83
2023-05-15T00:33:14.073Z,26.82
2023-05-15T00:34:14.072Z,26.79
2023-05-15T00:35:14.054Z,26.82
2023-05-15T00:36:14.087Z,26.80
2023-05-15T00:37:14.086Z,26.79
2023-05-15T00:38:14.079Z,26.80
2023-05-15T00:39:14.079Z,26.80
2023-05-15T00:40:14.055Z,26.80
2023-05-15T00:41:14.084Z,26.82
2023-05-15T00:42:14.085Z,26.82
2023-05-15T00:43:14.098Z,26.82
2023-05-15T00:44:14.099Z,26.82
2023-05-15T00:45:14.110Z,26.79
2023-05-15T00:46:14.083Z,26.82
2023-05-15T00:47:14.180Z,26.80
2023-05-15T00:48:14.066Z,26.82
2023-05-15T00:49:14.104Z,26.80
2023-05-15T00:50:14.094Z,26.80
2023-05-15T00:51:14.083Z,26.79
2023-05-15T00:52:14.105Z,26.77
2023-05-15T00:53:14.099Z,26.77
2023-05-15T00:54:14.185Z,26.77
2023-05-15T00:55:14.115Z,26.73
2023-05-15T00:56:14.130Z,26.75
2023-05-15T00:57:14.099Z,26.76
2023-05-15T00:58:14.103Z,26.76
2023-05-15T00:59:14.125Z,26.75
2023-05-15T01:00:14.104Z,26.76
2023-05-15T01:01:14.225Z,26.76
2023-05-15T01:02:14.179Z,26.76
2023-05-15T01:03:14.212Z,26.76
2023-05-15T01:04:14.121Z,26.75
2023-05-15T01:05:14.130Z,26.76
2023-05-15T01:06:14.108Z,26.76
2023-05-15T01:07:14.113Z,26.73
2023-05-15T01:08:14.134Z,26.75
2023-05-15T01:09:14.130Z,26.75
2023-05-15T01:10:14.179Z,26.72
2023-05-15T01:11:14.179Z,26.72
2023-05-15T01:12:14.153Z,26.75
2023-05-15T01:13:14.181Z,26.72
2023-05-15T01:14:14.182Z,26.73
2023-05-15T01:15:14.167Z,26.73
2023-05-15T01:16:14.180Z,26.75
2023-05-15T01:17:14.174Z,26.76
2023-05-15T01:18:14.284Z,26.73
2023-05-15T01:19:14.277Z,26.75
2023-05-15T01:20:14.174Z,26.77
2023-05-15T01:21:14.185Z,26.76
2023-05-15T01:22:14.165Z,26.75
2023-05-15T01:23:14.167Z,26.76
2023-05-15T01:24:14.185Z,26.75
2023-05-15T01:25:14.161Z,26.76
2023-05-15T01:26:14.189Z,26.76
2023-05-15T01:27:14.204Z,26.77
2023-05-15T01:28:14.158Z,26.77
2023-05-15T01:29:14.179Z,26.75
2023-05-15T01:30:14.186Z,26.76
2023-05-15T01:31:14.186Z,26.75
2023-05-15T01:32:14.899Z,26.75
2023-05-15T01:33:14.205Z,26.76
2023-05-15T01:34:14.185Z,26.76
2023-05-15T01:35:14.190Z,26.75
2023-05-15T01:36:14.198Z,26.75
2023-05-15T01:37:14.236Z,26.72
2023-05-15T01:38:14.209Z,26.72
2023-05-15T01:39:14.220Z,26.73
2023-05-15T01:40:14.226Z,26.70
2023-05-15T01:41:14.219Z,26.70
2023-05-15T01:42:14.228Z,26.70
2023-05-15T01:43:14.245Z,26.73
2023-05-15T01:44:14.237Z,26.73
2023-05-15T01:45:14.236Z,26.72
2023-05-15T01:46:14.306Z,26.70
2023-05-15T01:47:14.253Z,26.70
2023-05-15T01:48:14.269Z,26.67
2023-05-15T01:49:14.255Z,26.72
2023-05-15T01:50:14.266Z,26.69
2023-05-15T01:51:14.295Z,26.72
2023-05-15T01:52:14.327Z,26.72
2023-05-15T01:53:14.317Z,26.70
2023-05-15T01:54:14.270Z,26.70
2023-05-15T01:55:14.283Z,26.72
2023-05-15T01:56:14.300Z,26.72
2023-05-15T01:57:14.320Z,26.75
2023-05-15T01:58:14.287Z,26.72
2023-05-15T01:59:14.334Z,26.70
2023-05-15T02:00:14.317Z,26.73
2023-05-15T02:01:14.328Z,26.75
2023-05-15T02:02:14.321Z,26.72
2023-05-15T02:03:14.397Z,26.72
2023-05-15T02:04:14.334Z,26.72
2023-05-15T02:05:14.345Z,26.72
2023-05-15T02:06:14.342Z,26.72
2023-05-15T02:07:14.343Z,26.72
2023-05-15T02:08:14.342Z,26.70
2023-05-15T02:09:14.348Z,26.73
2023-05-15T02:10:14.372Z,26.72
2023-05-15T02:11:14.346Z,26.73
2023-05-15T02:12:14.356Z,26.70
2023-05-15T02:13:14.369Z,26.70
2023-05-15T02:14:14.373Z,26.73
2023-05-15T02:15:14.393Z,26.73
2023-05-15T02:16:14.441Z,26.73
2023-05-15T02:17:14.372Z,26.72
2023-05-15T02:18:14.385Z,26.72
2023-05-15T02:19:14.434Z,26.72
2023-05-15T02:20:14.418Z,26.69
2023-05-15T02:21:14.401Z,26.70
2023-05-15T02:22:14.389Z,26.70
2023-05-15T02:23:14.402Z,26.70
2023-05-15T02:24:14.414Z,26.69
2023-05-15T02:25:14.458Z,26.67
2023-05-15T02:26:14.445Z,26.67
2023-05-15T02:27:14.466Z,26.67
2023-05-15T02:28:14.447Z,26.69
2023-05-15T02:29:14.475Z,26.67
2023-05-15T02:30:14.459Z,26.69
2023-05-15T02:31:14.526Z,26.70
2023-05-15T02:32:14.675Z,26.69
2023-05-15T02:33:14.480Z,26.72
2023-05-15T02:34:14.477Z,26.69
2023-05-15T02:35:14.464Z,26.70
2023-05-15T02:36:14.496Z,26.69
2023-05-15T02:37:14.507Z,26.70
2023-05-15T02:38:14.526Z,26.70
2023-05-15T02:39:14.486Z,26.72
2023-05-15T02:40:14.485Z,26.70
2023-05-15T02:41:14.513Z,26.70
2023-05-15T02:42:14.525Z,26.72
2023-05-15T02:43:14.510Z,26.75
2023-05-15T02:44:14.502Z,26.75
2023-05-15T02:45:14.505Z,26.75
2023-05-15T02:46:14.536Z,26.76
2023-05-15T02:47:14.495Z,26.76
2023-05-15T02:48:14.507Z,26.76
2023-05-15T02:49:14.478Z,26.76
2023-05-15T02:50:14.484Z,26.82
2023-05-15T02:51:14.500Z,26.77
2023-05-15T02:52:14.487Z,26.82
2023-05-15T02:53:14.563Z,26.80
2023-05-15T02:54:14.478Z,26.83
2023-05-15T02:55:14.498Z,26.85
2023-05-15T02:56:14.465Z,26.85
2023-05-15T02:57:14.510Z,26.86
2023-05-15T02:58:15.312Z,26.86
2023-05-15T02:59:14.551Z,26.89
2023-05-15T03:00:14.609Z,26.86
2023-05-15T03:01:14.756Z,26.86
2023-05-15T03:02:14.726Z,26.90
2023-05-15T03:03:14.806Z,26.90
2023-05-15T03:04:14.953Z,26.90
2023-05-15T03:05:14.931Z,26.93
2023-05-15T03:06:14.979Z,26.90
2023-05-15T03:07:15.045Z,26.90
2023-05-15T03:08:15.109Z,26.94
2023-05-15T03:09:15.164Z,26.94
2023-05-15T03:10:15.240Z,26.96
2023-05-15T03:11:15.287Z,26.94
2023-05-15T03:12:15.341Z,26.99
2023-05-15T03:13:15.402Z,27.01
2023-05-15T03:14:15.454Z,27.01
2023-05-15T03:15:15.475Z,27.03
2023-05-15T03:16:15.539Z,27.01
2023-05-15T03:17:15.924Z,27.03
2023-05-15T03:18:18.539Z,27.07
2023-05-15T03:19:15.730Z,27.08
2023-05-15T03:20:15.660Z,27.06
2023-05-15T03:21:15.648Z,27.07
2023-05-15T03:22:15.623Z,27.10
2023-05-15T03:23:15.632Z,27.10
2023-05-15T03:24:15.613Z,27.11
2023-05-15T03:25:15.609Z,27.10
2023-05-15T03:26:15.598Z,27.11
2023-05-15T03:27:15.604Z,27.11
2023-05-15T03:28:15.574Z,27.13
2023-05-15T03:29:15.572Z,27.13
2023-05-15T03:30:15.553Z,27.13
2023-05-15T03:31:15.644Z,27.15
2023-05-15T03:32:15.631Z,27.13
2023-05-15T03:33:15.545Z,27.17
2023-05-15T03:34:15.530Z,27.15
2023-05-15T03:35:15.629Z,27.17
2023-05-15T03:36:15.519Z,27.17
2023-05-15T03:37:15.505Z,27.15
2023-05-15T03:38:15.482Z,27.18
2023-05-15T03:39:15.527Z,27.18
2023-05-15T03:40:15.498Z,27.20
2023-05-15T03:41:15.479Z,27.20
2023-05-15T03:42:15.488Z,27.21
2023-05-15T03:43:15.479Z,27.21
2023-05-15T03:44:15.471Z,27.21
2023-05-15T03:45:15.471Z,27.24
2023-05-15T03:46:15.776Z,27.24
2023-05-15T03:47:15.464Z,27.26
2023-05-15T03:48:15.424Z,27.26
2023-05-15T03:49:15.430Z,27.24
2023-05-15T03:50:15.486Z,27.24
2023-05-15T03:51:15.423Z,27.24
2023-05-15T03:52:15.394Z,27.26
2023-05-15T03:53:15.398Z,27.26
2023-05-15T03:54:15.417Z,27.26
2023-05-15T03:55:15.377Z,27.26
2023-05-15T03:56:15.357Z,27.28
2023-05-15T03:57:15.347Z,27.27
2023-05-15T03:58:15.406Z,27.27
2023-05-15T03:59:15.351Z,27.27
2023-05-15T04:00:16.953Z,27.27
2023-05-15T04:01:15.354Z,27.27
2023-05-15T04:02:15.338Z,27.24
2023-05-15T04:03:15.416Z,27.24
2023-05-15T04:04:15.360Z,27.24
2023-05-15T04:05:15.463Z,27.23
2023-05-15T04:06:15.445Z,27.23
2023-05-15T04:07:15.513Z,27.23
2023-05-15T04:08:15.562Z,27.21
2023-05-15T04:09:15.598Z,27.21
2023-05-15T04:10:15.664Z,27.23
2023-05-15T04:11:15.733Z,27.23
2023-05-15T04:12:15.740Z,27.24
2023-05-15T04:13:15.787Z,27.21
2023-05-15T04:14:15.857Z,27.21
2023-05-15T04:15:15.912Z,27.20
2023-05-15T04:16:16.010Z,27.21
2023-05-15T04:17:15.969Z,27.21
2023-05-15T04:18:16.039Z,27.18
2023-05-15T04:19:16.178Z,27.21
2023-05-15T04:20:16.118Z,27.21
2023-05-15T04:21:16.174Z,27.23
2023-05-15T04:22:16.244Z,27.23
2023-05-15T04:23:16.256Z,27.20
2023-05-15T04:24:16.289Z,27.21
2023-05-15T04:25:16.461Z,27.21
2023-05-15T04:26:16.362Z,27.21
2023-05-15T04:27:16.406Z,27.21
2023-05-15T04:28:16.452Z,27.21
2023-05-15T04:29:16.540Z,27.23
2023-05-15T04:30:16.532Z,27.23
2023-05-15T04:31:16.601Z,27.24
2023-05-15T04:32:16.757Z,27.21
2023-05-15T04:33:16.663Z,27.21
2023-05-15T04:34:16.700Z,27.23
2023-05-15T04:35:16.753Z,27.24
2023-05-15T04:36:16.774Z,27.24
2023-05-15T04:37:16.944Z,27.26
2023-05-15T04:38:16.856Z,27.21
2023-05-15T04:39:16.932Z,27.21
2023-05-15T04:40:17.053Z,27.26
2023-05-15T04:41:17.033Z,27.26
2023-05-15T04:42:17.073Z,27.23
2023-05-15T04:43:17.111Z,27.24
2023-05-15T04:44:17.144Z,27.23
2023-05-15T04:45:17.212Z,27.23
2023-05-15T04:46:17.283Z,27.24
2023-05-15T04:47:17.285Z,27.23
2023-05-15T04:48:17.330Z,27.23
2023-05-15T04:49:17.360Z,27.21
2023-05-15T04:50:17.429Z,27.21
2023-05-15T04:51:17.466Z,27.23
2023-05-15T04:52:17.507Z,27.20
2023-05-15T04:53:17.562Z,27.21
2023-05-15T04:54:17.612Z,27.18
2023-05-15T04:55:17.668Z,27.20
2023-05-15T04:56:17.704Z,27.15
2023-05-15T04:57:17.821Z,27.18
2023-05-15T04:58:17.821Z,27.18
2023-05-15T04:59:17.854Z,27.18
2023-05-15T05:00:17.942Z,27.18
2023-05-15T05:01:25.512Z,27.17
2023-05-15T05:02:17.979Z,27.15
2023-05-15T05:03:18.018Z,27.15
2023-05-15T05:04:17.984Z,27.14
2023-05-15T05:05:17.928Z,27.13
2023-05-15T05:06:17.933Z,27.10
2023-05-15T05:07:17.952Z,27.10
2023-05-15T05:08:17.951Z,27.07
2023-05-15T05:09:17.899Z,27.06
2023-05-15T05:10:17.894Z,27.04
2023-05-15T05:11:17.910Z,27.03
2023-05-15T05:12:17.861Z,27.01
2023-05-15T05:13:17.862Z,27.00
2023-05-15T05:14:17.893Z,26.99
2023-05-15T05:15:17.870Z,26.96
2023-05-15T05:16:17.888Z,26.93
2023-05-15T05:17:17.867Z,26.94
2023-05-15T05:18:17.825Z,26.90
2023-05-15T05:19:17.877Z,26.86
2023-05-15T05:20:17.846Z,26.87
2023-05-15T05:21:17.832Z,26.87
2023-05-15T05:22:17.845Z,26.90
2023-05-15T05:23:17.804Z,26.86
2023-05-15T05:24:17.818Z,26.86
2023-05-15T05:25:17.780Z,26.86
2023-05-15T05:26:17.792Z,26.85
2023-05-15T05:27:17.795Z,26.83
2023-05-15T05:28:17.770Z,26.82
2023-05-15T05:29:17.777Z,26.83
2023-05-15T05:30:17.745Z,26.80
2023-05-15T05:31:17.784Z,26.80
2023-05-15T05:32:17.802Z,26.79
2023-05-15T05:33:17.927Z,26.77
2023-05-15T05:34:17.754Z,26.63
2023-05-15T05:35:17.732Z,26.59
2023-05-15T05:36:17.724Z,26.55
2023-05-15T05:37:17.735Z,26.56
2023-05-15T05:38:17.697Z,26.55
2023-05-15T05:39:17.726Z,26.52
2023-05-15T05:40:17.716Z,26.55
2023-05-15T05:41:17.695Z,26.53
2023-05-15T05:42:17.696Z,26.50
2023-05-15T05:43:17.656Z,26.52
2023-05-15T05:44:17.683Z,26.46
2023-05-15T05:45:17.704Z,26.43
2023-05-15T05:46:24.791Z,26.42
2023-05-15T05:47:17.795Z,26.45
2023-05-15T05:48:17.917Z,26.43
2023-05-15T05:49:17.760Z,26.47
2023-05-15T05:50:17.724Z,26.52
2023-05-15T05:51:17.738Z,26.57
2023-05-15T05:52:17.702Z,26.62
2023-05-15T05:53:17.687Z,26.64
2023-05-15T05:54:17.674Z,26.69
2023-05-15T05:55:17.722Z,26.73
2023-05-15T05:56:17.746Z,26.77
2023-05-15T05:57:17.690Z,26.83
2023-05-15T05:58:24.945Z,26.85
2023-05-15T05:59:19.395Z,26.91
2023-05-15T06:00:17.659Z,26.97
2023-05-15T06:01:17.719Z,27.03
2023-05-15T06:02:17.768Z,27.08
2023-05-15T06:03:17.744Z,27.15
2023-05-15T06:04:18.325Z,27.21
2023-05-15T06:05:17.647Z,27.31
2023-05-15T06:06:17.604Z,27.36
2023-05-15T06:07:17.606Z,27.37
2023-05-15T06:08:17.599Z,27.45
2023-05-15T06:09:17.584Z,27.45
2023-05-15T06:10:17.572Z,27.51
2023-05-15T06:11:17.577Z,27.55
2023-05-15T06:12:17.585Z,27.57
2023-05-15T06:13:17.923Z,27.61
2023-05-15T06:14:18.569Z,27.64
2023-05-15T06:15:17.555Z,27.68
2023-05-15T06:16:17.561Z,27.72
2023-05-15T06:17:17.588Z,27.73
2023-05-15T06:18:17.916Z,27.75
2023-05-15T06:19:17.658Z,27.78
2023-05-15T06:20:17.548Z,27.81
2023-05-15T06:21:17.488Z,27.84
2023-05-15T06:22:17.489Z,27.85
2023-05-15T06:23:17.467Z,27.88
2023-05-15T06:24:17.495Z,27.88
2023-05-15T06:25:17.470Z,27.87
2023-05-15T06:26:17.470Z,27.89
2023-05-15T06:27:17.486Z,27.91
2023-05-15T06:28:17.473Z,27.93
2023-05-15T06:29:17.459Z,27.96
2023-05-15T06:30:17.449Z,27.99
2023-05-15T06:31:17.586Z,28.03
2023-05-15T06:32:17.522Z,28.05
2023-05-15T06:33:17.544Z,28.09
2023-05-15T06:34:17.633Z,28.11
2023-05-15T06:35:17.631Z,28.15
2023-05-15T06:36:17.646Z,28.13
2023-05-15T06:37:17.699Z,28.18
2023-05-15T06:38:17.983Z,28.16
2023-05-15T06:39:17.806Z,28.18
2023-05-15T06:40:17.835Z,28.19
2023-05-15T06:41:17.914Z,28.18
2023-05-15T06:42:17.951Z,28.15
2023-05-15T06:43:18.473Z,28.16
2023-05-15T06:44:18.049Z,28.13
2023-05-15T06:45:18.197Z,28.15
2023-05-15T06:46:18.160Z,28.08
2023-05-15T06:47:18.137Z,28.08
2023-05-15T06:48:18.136Z,28.06
2023-05-15T06:49:18.139Z,28.05
2023-05-15T06:50:18.090Z,28.02
2023-05-15T06:51:18.064Z,28.01
2023-05-15T06:52:18.080Z,27.98
2023-05-15T06:53:18.146Z,27.96
2023-05-15T06:54:18.081Z,27.93
2023-05-15T06:55:18.154Z,27.89
2023-05-15T06:56:18.105Z,27.88
2023-05-15T06:57:18.106Z,27.88
2023-05-15T06:58:18.177Z,27.85
2023-05-15T06:59:18.167Z,27.84
2023-05-15T07:00:18.114Z,27.79
2023-05-15T07:01:18.141Z,27.79
2023-05-15T07:02:18.189Z,27.77
2023-05-15T07:03:18.172Z,27.77
2023-05-15T07:04:18.450Z,27.75
2023-05-15T07:05:18.180Z,27.75
2023-05-15T07:06:18.169Z,27.72
2023-05-15T07:07:18.185Z,27.72
2023-05-15T07:08:18.262Z,27.72
2023-05-15T07:09:18.191Z,27.71
2023-05-15T07:10:18.242Z,27.71
2023-05-15T07:11:18.246Z,27.69
2023-05-15T07:12:18.234Z,27.68
2023-05-15T07:13:18.250Z,27.69
2023-05-15T07:14:18.249Z,27.66
2023-05-15T07:15:18.304Z,27.68
2023-05-15T07:16:18.325Z,27.66
2023-05-15T07:17:18.316Z,27.68
2023-05-15T07:18:18.385Z,27.68
2023-05-15T07:19:18.366Z,27.65
2023-05-15T07:20:19.350Z,27.65
2023-05-15T07:21:18.295Z,27.65
2023-05-15T07:22:18.318Z,27.64
2023-05-15T07:23:18.298Z,27.64
2023-05-15T07:24:18.321Z,27.65
2023-05-15T07:25:18.296Z,27.64
2023-05-15T07:26:27.550Z,27.62
2023-05-15T07:27:19.338Z,27.61
2023-05-15T07:28:18.372Z,27.60
2023-05-15T07:29:18.260Z,27.62
2023-05-15T07:30:18.254Z,27.61
2023-05-15T07:31:18.249Z,27.55
2023-05-15T07:32:18.317Z,27.55
2023-05-15T07:33:18.261Z,27.52
2023-05-15T07:34:18.498Z,27.51
2023-05-15T07:35:18.273Z,27.48
2023-05-15T07:36:18.211Z,27.45
2023-05-15T07:37:18.226Z,27.47
2023-05-15T07:38:18.266Z,27.44
2023-05-15T07:39:18.215Z,27.38
2023-05-15T07:40:18.184Z,27.36
2023-05-15T07:41:18.259Z,27.37
2023-05-15T07:42:18.298Z,27.34
2023-05-15T07:43:19.301Z,27.34
2023-05-15T07:44:18.482Z,27.30
2023-05-15T07:45:18.302Z,27.30
2023-05-15T07:46:18.299Z,27.28
2023-05-15T07:47:18.224Z,27.27
2023-05-15T07:48:18.287Z,27.24
2023-05-15T07:49:18.479Z,27.23
2023-05-15T07:50:18.393Z,27.17
2023-05-15T07:51:18.211Z,27.18
2023-05-15T07:52:18.288Z,27.14
2023-05-15T07:53:18.308Z,27.14
2023-05-15T07:54:18.373Z,27.14
2023-05-15T07:55:18.531Z,27.13
2023-05-15T07:56:18.543Z,27.13
2023-05-15T07:57:18.556Z,27.10
2023-05-15T07:58:18.614Z,27.11
2023-05-15T07:59:19.028Z,27.07
2023-05-15T08:00:18.692Z,27.07
2023-05-15T08:01:18.785Z,27.08
2023-05-15T08:02:18.923Z,27.10
2023-05-15T08:03:19.164Z,27.11
2023-05-15T08:04:19.042Z,27.14
2023-05-15T08:05:19.064Z,27.13
2023-05-15T08:06:19.082Z,27.18
2023-05-15T08:07:19.156Z,27.15
2023-05-15T08:08:19.194Z,27.17
2023-05-15T08:09:19.260Z,27.17
2023-05-15T08:10:19.310Z,27.15
2023-05-15T08:11:19.368Z,27.18
2023-05-15T08:12:20.354Z,27.18
2023-05-15T08:13:19.355Z,27.20
2023-05-15T08:14:19.401Z,27.21
2023-05-15T08:15:19.349Z,27.26
2023-05-15T08:16:19.415Z,27.24
2023-05-15T08:17:19.382Z,27.27
2023-05-15T08:18:19.305Z,27.28
2023-05-15T08:19:19.433Z,27.34
2023-05-15T08:20:19.314Z,27.34
2023-05-15T08:21:19.291Z,27.36
2023-05-15T08:22:19.305Z,27.34
2023-05-15T08:23:19.304Z,27.37
2023-05-15T08:24:19.310Z,27.40
2023-05-15T08:25:19.342Z,27.40
2023-05-15T08:26:19.442Z,27.42
2023-05-15T08:27:19.432Z,27.44
2023-05-15T08:28:19.467Z,27.44
2023-05-15T08:29:19.492Z,27.47
2023-05-15T08:30:19.557Z,27.48
2023-05-15T08:31:19.617Z,27.44
2023-05-15T08:32:19.584Z,27.47
2023-05-15T08:33:19.682Z,27.42
2023-05-15T08:34:19.727Z,27.47
2023-05-15T08:35:19.724Z,27.45
2023-05-15T08:36:19.854Z,27.41
2023-05-15T08:37:19.838Z,27.41
2023-05-15T08:38:19.859Z,27.44
2023-05-15T08:39:19.889Z,27.40
2023-05-15T08:40:25.707Z,27.38
2023-05-15T08:41:32.615Z,27.37
2023-05-15T08:42:20.964Z,27.38
2023-05-15T08:43:19.927Z,27.37
2023-05-15T08:44:19.928Z,27.34
2023-05-15T08:45:19.900Z,27.34
2023-05-15T08:46:19.967Z,27.34
2023-05-15T08:47:19.910Z,27.33
2023-05-15T08:48:20.007Z,27.31
2023-05-15T08:49:19.894Z,27.33
2023-05-15T08:50:19.887Z,27.33
2023-05-15T08:51:19.916Z,27.34
2023-05-15T08:52:19.893Z,27.31
2023-05-15T08:53:19.861Z,27.31
2023-05-15T08:54:19.887Z,27.33
2023-05-15T08:55:20.036Z,27.33
2023-05-15T08:56:19.840Z,27.33
2023-05-15T08:57:19.850Z,27.31
2023-05-15T08:58:19.789Z,27.31
2023-05-15T08:59:19.808Z,27.31
2023-05-15T09:00:19.854Z,27.30
2023-05-15T09:01:19.878Z,27.33
2023-05-15T09:02:19.810Z,27.34
2023-05-15T09:03:20.111Z,27.34
2023-05-15T09:04:19.765Z,27.33
2023-05-15T09:05:20.023Z,27.31
2023-05-15T09:06:19.773Z,27.34
2023-05-15T09:07:19.740Z,27.34
2023-05-15T09:08:19.763Z,27.34
2023-05-15T09:09:19.740Z,27.33
2023-05-15T09:10:19.864Z,27.30
2023-05-15T09:11:19.840Z,27.30
2023-05-15T09:12:19.896Z,27.31
2023-05-15T09:13:19.916Z,27.30
2023-05-15T09:14:20.148Z,27.30
2023-05-15T09:15:20.016Z,27.28
2023-05-15T09:16:20.107Z,27.28
2023-05-15T09:17:20.134Z,27.30
2023-05-15T09:18:20.157Z,27.28
2023-05-15T09:19:20.262Z,27.30
2023-05-15T09:20:20.242Z,27.30
2023-05-15T09:21:20.286Z,27.30
2023-05-15T09:22:20.324Z,27.28
2023-05-15T09:23:20.376Z,27.28
2023-05-15T09:24:20.456Z,27.28
2023-05-15T09:25:20.526Z,27.28
2023-05-15T09:26:20.524Z,27.27
2023-05-15T09:27:20.595Z,27.28
2023-05-15T09:28:20.600Z,27.30
2023-05-15T09:29:20.678Z,27.28
2023-05-15T09:30:20.720Z,27.31
2023-05-15T09:31:20.862Z,27.28
2023-05-15T09:32:20.879Z,27.27
2023-05-15T09:33:20.908Z,27.26
2023-05-15T09:34:20.922Z,27.30
2023-05-15T09:35:20.967Z,27.28
2023-05-15T09:36:21.047Z,27.28
2023-05-15T09:37:21.078Z,27.30
2023-05-15T09:38:21.101Z,27.31
2023-05-15T09:39:21.164Z,27.27
2023-05-15T09:40:21.507Z,27.27
2023-05-15T09:41:21.286Z,27.30
2023-05-15T09:42:21.301Z,27.27
2023-05-15T09:43:21.358Z,27.30
2023-05-15T09:44:21.917Z,27.28
2023-05-15T09:45:21.575Z,27.28
2023-05-15T09:46:21.585Z,27.28
2023-05-15T09:47:21.836Z,27.30
2023-05-15T09:48:21.596Z,27.28
2023-05-15T09:49:21.633Z,27.28
2023-05-15T09:50:22.121Z,27.30
2023-05-15T09:51:21.718Z,27.28
2023-05-15T09:52:21.841Z,27.28
2023-05-15T09:53:21.830Z,27.27
2023-05-15T09:54:21.872Z,27.30
2023-05-15T09:55:21.990Z,27.28
2023-05-15T09:56:22.031Z,27.31
2023-05-15T09:57:22.010Z,27.30
2023-05-15T09:58:22.046Z,27.31
2023-05-15T09:59:22.080Z,27.33
2023-05-15T10:00:22.626Z,27.33
2023-05-15T10:01:22.223Z,27.33
2023-05-15T10:02:22.316Z,27.33
2023-05-15T10:03:22.351Z,27.34
2023-05-15T10:04:22.305Z,27.33
2023-05-15T10:05:35.303Z,27.36
2023-05-15T10:06:23.395Z,27.38
2023-05-15T10:07:22.340Z,27.40
2023-05-15T10:08:22.324Z,27.41
2023-05-15T10:09:22.368Z,27.44
2023-05-15T10:10:22.391Z,27.42
2023-05-15T10:11:22.364Z,27.45
2023-05-15T10:12:23.309Z,27.42
2023-05-15T10:13:22.317Z,27.47
2023-05-15T10:14:22.308Z,27.47
2023-05-15T10:15:22.328Z,27.47
2023-05-15T10:16:22.538Z,27.52
2023-05-15T10:17:22.319Z,27.51
2023-05-15T10:18:22.255Z,27.51
2023-05-15T10:19:23.079Z,27.54
2023-05-15T10:20:22.290Z,27.51
2023-05-15T10:21:22.426Z,27.51
2023-05-15T10:22:22.259Z,27.50
2023-05-15T10:23:22.322Z,27.50
2023-05-15T10:24:22.304Z,27.50
2023-05-15T10:25:22.346Z,27.48
2023-05-15T10:26:22.388Z,27.48
2023-05-15T10:27:22.433Z,27.50
2023-05-15T10:28:22.482Z,27.50
2023-05-15T10:29:22.501Z,27.50
2023-05-15T10:30:22.588Z,27.50
2023-05-15T10:31:22.643Z,27.47
2023-05-15T10:32:22.602Z,27.50
2023-05-15T10:33:22.774Z,27.47
2023-05-15T10:34:22.698Z,27.47
2023-05-15T10:35:22.704Z,27.45
2023-05-15T10:36:22.782Z,27.45
2023-05-15T10:37:22.828Z,27.41
2023-05-15T10:38:22.837Z,27.41
2023-05-15T10:39:22.917Z,27.40
2023-05-15T10:40:23.083Z,27.38
2023-05-15T10:41:22.980Z,27.40
2023-05-15T10:42:23.024Z,27.37
2023-05-15T10:43:23.070Z,27.37
2023-05-15T10:44:23.155Z,27.36
2023-05-15T10:45:23.579Z,27.34
2023-05-15T10:46:23.224Z,27.36
2023-05-15T10:47:23.407Z,27.36
2023-05-15T10:48:24.294Z,27.36
2023-05-15T10:49:23.277Z,27.38
2023-05-15T10:50:23.693Z,27.36
2023-05-15T10:51:23.271Z,27.36
2023-05-15T10:52:23.265Z,27.41
2023-05-15T10:53:23.301Z,27.41
2023-05-15T10:54:23.257Z,27.37
2023-05-15T10:55:23.575Z,27.34
2023-05-15T10:56:23.328Z,27.38
2023-05-15T10:57:23.254Z,27.41
2023-05-15T10:58:23.269Z,27.44
2023-05-15T10:59:23.297Z,27.45
2023-05-15T11:00:24.071Z,27.52
2023-05-15T11:01:23.332Z,27.54
2023-05-15T11:02:23.415Z,27.58
2023-05-15T11:03:23.395Z,27.60
2023-05-15T11:04:23.470Z,27.60
2023-05-15T11:05:23.436Z,27.61
2023-05-15T11:06:23.439Z,27.64
2023-05-15T11:07:23.428Z,27.60
2023-05-15T11:08:23.438Z,27.64
2023-05-15T11:09:24.802Z,27.64
2023-05-15T11:10:23.600Z,27.64
2023-05-15T11:11:23.481Z,27.64
2023-05-15T11:12:23.473Z,27.62
2023-05-15T11:13:23.436Z,27.64
2023-05-15T11:14:23.415Z,27.61
2023-05-15T11:15:23.428Z,27.62
2023-05-15T11:16:23.430Z,27.61
2023-05-15T11:17:23.417Z,27.62
2023-05-15T11:18:23.423Z,27.62
2023-05-15T11:19:23.375Z,27.62
2023-05-15T11:20:23.473Z,27.65
2023-05-15T11:21:23.550Z,27.64
2023-05-15T11:22:23.406Z,27.66
2023-05-15T11:23:23.380Z,27.69
2023-05-15T11:24:23.414Z,27.69
2023-05-15T11:25:23.357Z,27.69
2023-05-15T11:26:23.368Z,27.68
2023-05-15T11:27:23.376Z,27.68
2023-05-15T11:28:23.352Z,27.66
2023-05-15T11:29:23.358Z,27.68
2023-05-15T11:30:23.364Z,27.66
2023-05-15T11:31:23.611Z,27.66
2023-05-15T11:32:23.313Z,27.66
2023-05-15T11:33:23.614Z,27.65
2023-05-15T11:34:23.278Z,27.64
2023-05-15T11:35:23.289Z,27.64
2023-05-15T11:36:23.554Z,27.64
2023-05-15T11:37:23.302Z,27.64
2023-05-15T11:38:23.302Z,27.61
2023-05-15T11:39:23.303Z,27.58
2023-05-15T11:40:23.505Z,27.60
2023-05-15T11:41:23.593Z,27.60
2023-05-15T11:42:23.225Z,27.58
2023-05-15T11:43:23.242Z,27.58
2023-05-15T11:44:23.229Z,27.58
2023-05-15T11:45:23.234Z,27.55
2023-05-15T11:46:23.215Z,27.52
2023-05-15T11:47:23.204Z,27.52
2023-05-15T11:48:23.180Z,27.55
2023-05-15T11:49:23.169Z,27.54
2023-05-15T11:50:23.531Z,27.55
2023-05-15T11:51:23.180Z,27.51
2023-05-15T11:52:23.138Z,27.51
2023-05-15T11:53:23.174Z,27.52
2023-05-15T11:54:23.154Z,27.51
2023-05-15T11:55:23.134Z,27.51
2023-05-15T11:56:23.131Z,27.52
2023-05-15T11:57:23.121Z,27.51
2023-05-15T11:58:23.138Z,27.50
2023-05-15T11:59:23.112Z,27.51
2023-05-15T12:00:23.138Z,27.51
2023-05-15T12:01:23.093Z,27.52
2023-05-15T12:02:23.077Z,27.51
2023-05-15T12:03:23.155Z,27.48
2023-05-15T12:04:23.160Z,27.47
2023-05-15T12:05:23.089Z,27.47
2023-05-15T12:06:23.084Z,27.47
2023-05-15T12:07:23.038Z,27.47
2023-05-15T12:08:23.047Z,27.45
2023-05-15T12:09:23.041Z,27.44
2023-05-15T12:10:23.192Z,27.47
2023-05-15T12:11:23.026Z,27.45
2023-05-15T12:12:22.985Z,27.44
2023-05-15T12:13:22.974Z,27.47
2023-05-15T12:14:23.001Z,27.45
2023-05-15T12:15:23.049Z,27.47
2023-05-15T12:16:23.022Z,27.47
2023-05-15T12:17:23.016Z,27.48
2023-05-15T12:18:22.992Z,27.48
2023-05-15T12:19:23.091Z,27.48
2023-05-15T12:20:23.129Z,27.50
2023-05-15T12:21:23.108Z,27.50
2023-05-15T12:22:23.115Z,27.50
2023-05-15T12:23:23.135Z,27.51
2023-05-15T12:24:23.169Z,27.47
2023-05-15T12:25:23.207Z,27.51
2023-05-15T12:26:23.255Z,27.51
2023-05-15T12:27:23.262Z,27.50
2023-05-15T12:28:23.327Z,27.51
2023-05-15T12:29:23.302Z,27.52
2023-05-15T12:30:23.452Z,27.50
2023-05-15T12:31:23.422Z,27.52
2023-05-15T12:32:23.440Z,27.54
2023-05-15T12:33:23.452Z,27.51
2023-05-15T12:34:23.436Z,27.52
2023-05-15T12:35:23.497Z,27.52
2023-05-15T12:36:23.510Z,27.54
2023-05-15T12:37:23.524Z,27.51
2023-05-15T12:38:23.517Z,27.54
2023-05-15T12:39:23.577Z,27.54
2023-05-15T12:40:23.720Z,27.54
2023-05-15T12:41:23.625Z,27.54
2023-05-15T12:42:23.621Z,27.54
2023-05-15T12:43:23.615Z,27.57
2023-05-15T12:44:23.740Z,27.52
2023-05-15T12:45:23.674Z,27.54
2023-05-15T12:46:23.744Z,27.55
2023-05-15T12:47:23.721Z,27.57
2023-05-15T12:48:23.758Z,27.54
2023-05-15T12:49:23.769Z,27.52
2023-05-15T12:50:24.192Z,27.52
2023-05-15T12:51:23.860Z,27.52
2023-05-15T12:52:23.903Z,27.50